Etusivu
METAR-TAF:

METAR-TAF

Lentoasemat :

Rotterdamin lentoasema

Rotterdam, Alankomaat

Leveyspiiri: 51-57N, Pituuspiiri: 004-27E, korkeus merenpinnasta: -5 m

Tämänhetkinen sää

Tämä raportti tehtiin 36 minuuttia sitten, kello 19.55 UTC
Tuuli 4 kn pohjoisen/luoteesta
Lämpötila 25°C
Kosteus 65%
Ilmanpaine 1018 hPa
Näkyvyys 10 km tai enemmän

METAR: EHRD 071955Z AUTO 33004KT 9999 NCD 25/18 Q1018 NOSIG

Aika: 22:31 (20:31 UTC)

Sääennuste

Tämä raportti tehtiin 3 tuntia ja 56 minuuttia sitten, kello 16.35 UTC
Ennuste voimassa 07. päivästä klo 18 UTC - 08. päivään klo 24 UTC
Tuuli 5 kn idästä/koillisesta
Näkyvyys 10 km tai enemmän
ei pilviä alle 1500 m:ssä eikä cumulonimbus-pilviä
Tulossa
08. päivästä klo 09 UTC - 08. päivään klo 12 UTC
Tuuli 8 kn koillisesta

TAF: EHRD 071635Z 0718/0824 07005KT CAVOK BECMG 0809/0812 04008KT

Säähavainnot ja -ennusteet yli 4000 lentoasemalta (METAR- ja TAF-raportit).

Käytössä olevat sääasemat on merkitty karttaan keltaisilla ja punaisilla pisteillä.

Aseta hiiri pisteen päälle nähdäksesi sääaseman nimen.

Klikkaa sitten nähdäksesi säähavainnot ja -ennusteet.

Kartan vaihtaminen: klikkaa mustalla rastilla varustettuja vihreitä pisteitä, niin voit zoomata sisään; viivalla varustettua vihreää pistettä, niin voit zoomata ulos tai vihreitä nuolia, niin pääset viereisille kartoille.


METAR-TAF: